Terminal Aerodrome Forecast
Issued by NWS Grand Rapids, MI

Home | Current Version | Previous Version | Text Only | Print | Product List | Glossary On
Versions: 1 2 3 4 5 6 7 8 9 10 11 12 13 14 15 16 17 18 19
000
FTUS43 KGRR 221523 AAC
TAFGRR
TAF AMD
KGRR 221523Z 2215/2312 26018G28KT P6SM SKC
     FM230300 20008KT P6SM VCSH OVC070
     FM230700 20010KT 5SM -SHRA BR OVC025
     FM230800 20009KT 4SM -SHRA BR OVC015=

USA.gov is the U.S. government's official web portal to all federal, state and local government web resources and services.